Time;durP1;ratioP1;P1;durP2;ratioP2;P2;SDS_P1;SDS_P2;PMS_P1;PMS_P2;Temp;Humidity;BMP_temperature;BMP_pressure;BME280_temperature;BME280_humidity;BME280_pressure;Samples;Min_cycle;Max_cycle;Signal;HPM_P1;HPM_P2
2022/07/28 00:02:17;;;;;;;1999.90;999.90;;;17.30;99.90;;;;;;5033733;28;20703;-66
2022/07/28 00:04:43;;;;;;;1999.90;999.90;;;17.30;99.90;;;;;;5033597;28;20411;-65
2022/07/28 00:07:09;;;;;;;1999.90;999.90;;;17.30;99.90;;;;;;5033196;28;20430;-64
2022/07/28 00:09:34;;;;;;;1999.90;999.90;;;17.40;99.90;;;;;;5033582;28;20671;-64
2022/07/28 00:12:00;;;;;;;1999.90;999.90;;;17.30;99.90;;;;;;5033516;28;20254;-64
2022/07/28 00:14:26;;;;;;;1999.90;999.90;;;17.30;99.90;;;;;;5033492;28;20582;-65
2022/07/28 00:16:51;;;;;;;1999.90;999.90;;;17.30;99.90;;;;;;5033219;28;20280;-65
2022/07/28 00:19:17;;;;;;;1999.90;999.90;;;17.30;99.90;;;;;;5033357;28;20409;-65
2022/07/28 00:21:43;;;;;;;1999.90;999.90;;;17.30;99.90;;;;;;5033160;28;20169;-65
2022/07/28 00:24:09;;;;;;;1999.90;999.90;;;17.30;99.90;;;;;;5033146;28;20402;-65
2022/07/28 00:26:34;;;;;;;1999.90;999.90;;;17.30;99.90;;;;;;5032981;28;20559;-64
2022/07/28 00:29:00;;;;;;;1999.90;999.90;;;17.20;99.90;;;;;;5033306;28;20174;-65
2022/07/28 00:31:26;;;;;;;1999.90;999.90;;;17.20;99.90;;;;;;5033103;28;20171;-66
2022/07/28 00:33:51;;;;;;;1999.90;999.90;;;17.20;99.90;;;;;;5032990;28;20177;-65
2022/07/28 00:36:17;;;;;;;1999.90;999.90;;;17.10;99.90;;;;;;5032674;28;20192;-65
2022/07/28 00:38:43;;;;;;;1999.90;999.90;;;17.00;99.90;;;;;;5033000;28;20182;-65
2022/07/28 00:41:11;;;;;;;1999.90;999.90;;;17.00;99.90;;;;;;5033155;28;20265;-66
2022/07/28 00:43:41;;;;;;;1999.90;999.90;;;16.90;99.90;;;;;;5032794;28;20202;-64
2022/07/28 00:46:07;;;;;;;1999.90;999.90;;;16.90;99.90;;;;;;5032474;28;20793;-64
2022/07/28 00:48:40;;;;;;;1999.90;999.90;;;16.90;99.90;;;;;;5032844;28;20381;-65
2022/07/28 00:51:08;;;;;;;1999.90;999.90;;;16.90;99.90;;;;;;5032762;28;20441;-66
2022/07/28 00:53:34;;;;;;;1999.90;999.90;;;16.90;99.90;;;;;;5032733;28;20405;-66
2022/07/28 00:56:00;;;;;;;1999.90;999.90;;;16.80;99.90;;;;;;5032315;28;20779;-64
2022/07/28 00:58:26;;;;;;;1999.90;999.90;;;16.90;99.90;;;;;;5032573;28;20410;-65
2022/07/28 01:00:52;;;;;;;1999.90;999.90;;;16.90;99.90;;;;;;5032595;28;20165;-64
2022/07/28 01:03:18;;;;;;;1999.90;999.90;;;16.90;99.90;;;;;;5032405;28;20466;-65
2022/07/28 01:06:09;;;;;;;1999.90;999.90;;;16.90;99.90;;;;;;5032341;28;20418;-65
2022/07/28 01:09:12;;;;;;;1999.90;999.90;;;16.90;99.90;;;;;;5032448;28;20460;-65
2022/07/28 01:12:14;;;;;;;1999.90;999.90;;;16.90;99.90;;;;;;5032410;28;20425;-65
2022/07/28 01:14:46;;;;;;;1999.90;999.90;;;16.90;99.90;;;;;;5032343;28;20850;-66
2022/07/28 01:17:40;;;;;;;1999.90;999.90;;;16.90;99.90;;;;;;5031975;28;20474;-65
2022/07/28 01:20:15;;;;;;;1999.90;999.90;;;16.90;99.90;;;;;;5032260;28;20447;-65
2022/07/28 01:22:55;;;;;;;1999.90;999.90;;;16.90;99.90;;;;;;5032178;28;20454;-65
2022/07/28 01:25:44;;;;;;;1999.90;999.90;;;16.90;99.90;;;;;;5032177;28;20486;-66
2022/07/28 01:28:23;;;;;;;1999.90;999.90;;;16.90;99.90;;;;;;5012160;28;20475;-65
2022/07/28 01:30:54;;;;;;;1999.90;999.90;;;16.90;99.90;;;;;;5032161;28;20395;-65
2022/07/28 01:33:28;;;;;;;1999.90;999.90;;;16.90;99.90;;;;;;5032084;28;20410;-65
2022/07/28 01:36:00;;;;;;;1999.90;999.90;;;16.90;99.90;;;;;;5031882;28;20458;-65
2022/07/28 01:38:27;;;;;;;1999.90;999.90;;;16.80;99.90;;;;;;5032151;28;20489;-65
2022/07/28 01:40:55;;;;;;;1999.90;999.90;;;16.80;99.90;;;;;;5032069;28;20414;-65
2022/07/28 01:43:24;;;;;;;1999.90;999.90;;;16.80;99.90;;;;;;5031923;28;20450;-65
2022/07/28 01:45:50;;;;;;;1999.90;999.90;;;16.80;99.90;;;;;;5031502;28;20405;-65
2022/07/28 01:48:17;;;;;;;1999.90;999.90;;;16.70;99.90;;;;;;5031760;28;20406;-65
2022/07/28 01:50:47;;;;;;;1999.90;999.90;;;16.70;99.90;;;;;;5031885;28;20433;-64
2022/07/28 01:53:15;;;;;;;1999.90;999.90;;;16.70;99.90;;;;;;5031874;28;20430;-64
2022/07/28 01:55:42;;;;;;;1999.90;999.90;;;16.70;99.90;;;;;;5031853;28;20869;-64
2022/07/28 01:58:11;;;;;;;1999.90;999.90;;;16.70;99.90;;;;;;5031423;28;20484;-65
2022/07/28 02:00:38;;;;;;;1999.90;999.90;;;16.70;99.90;;;;;;5031844;28;20405;-65
2022/07/28 02:03:05;;;;;;;1999.90;999.90;;;16.70;99.90;;;;;;5031758;28;20483;-66
2022/07/28 02:05:33;;;;;;;1999.90;999.90;;;16.70;99.90;;;;;;5031837;28;20417;-65
2022/07/28 02:08:01;;;;;;;1999.90;999.90;;;16.70;99.90;;;;;;5031511;28;20952;-65
2022/07/28 02:10:28;;;;;;;1999.90;999.90;;;16.70;99.90;;;;;;5031709;28;20442;-65
2022/07/28 02:12:56;;;;;;;1999.90;999.90;;;16.70;99.90;;;;;;5031729;28;20441;-65
2022/07/28 02:15:25;;;;;;;1999.90;999.90;;;16.60;99.90;;;;;;5032080;28;20408;-65
2022/07/28 02:17:52;;;;;;;1999.90;999.90;;;16.60;99.90;;;;;;5031308;28;20441;-64
2022/07/28 02:20:19;;;;;;;1999.90;999.90;;;16.60;99.90;;;;;;5031619;28;20407;-65
2022/07/28 02:22:46;;;;;;;1999.90;999.90;;;16.70;99.90;;;;;;5031549;28;20443;-65
2022/07/28 02:25:13;;;;;;;1999.90;999.90;;;16.60;99.90;;;;;;5031863;28;20406;-65
2022/07/28 02:27:45;;;;;;;1999.90;999.90;;;16.60;99.90;;;;;;5031070;28;20459;-63
2022/07/28 02:30:14;;;;;;;1999.90;999.90;;;16.70;99.90;;;;;;5031491;28;20401;-64
2022/07/28 02:32:51;;;;;;;1999.90;999.90;;;16.50;99.90;;;;;;5031610;28;20428;-64
2022/07/28 02:35:31;;;;;;;1999.90;999.90;;;16.40;99.90;;;;;;5031565;28;20405;-65
2022/07/28 02:38:01;;;;;;;1999.90;999.90;;;16.40;99.90;;;;;;5031142;28;20431;-65
2022/07/28 02:40:33;;;;;;;1999.90;999.90;;;16.30;99.90;;;;;;5031483;28;20495;-65
2022/07/28 02:43:00;;;;;;;1999.90;999.90;;;16.30;99.90;;;;;;5031360;28;20445;-65
2022/07/28 02:45:27;;;;;;;1999.90;999.90;;;16.20;99.90;;;;;;5031444;28;20453;-65
2022/07/28 02:48:06;;;;;;;1999.90;999.90;;;16.20;99.90;;;;;;5031056;28;20520;-64
2022/07/28 02:50:31;;;;;;;1999.90;999.90;;;16.10;99.90;;;;;;5031522;28;20409;-66
2022/07/28 02:53:01;;;;;;;1999.90;999.90;;;16.10;99.90;;;;;;5031336;28;20629;-65
2022/07/28 02:55:27;;;;;;;1999.90;999.90;;;16.10;99.90;;;;;;5031318;28;20234;-64
2022/07/28 02:57:54;;;;;;;1999.90;999.90;;;16.00;99.90;;;;;;5031976;28;20431;-65
2022/07/28 03:00:20;;;;;;;1999.90;999.90;;;16.00;99.90;;;;;;5034754;28;20457;-65
2022/07/28 03:02:47;;;;;;;1999.90;999.90;;;15.90;99.90;;;;;;5035128;28;20824;-65
2022/07/28 03:05:14;;;;;;;1999.90;999.90;;;15.90;99.90;;;;;;5034961;28;20411;-65
2022/07/28 03:07:41;;;;;;;1999.90;999.90;;;15.80;99.90;;;;;;5034472;28;20942;-64
2022/07/28 03:10:08;;;;;;;1999.90;999.90;;;15.80;99.90;;;;;;5034705;28;20476;-66
2022/07/28 03:12:34;;;;;;;1999.90;999.90;;;15.70;99.90;;;;;;5034640;28;20416;-65
2022/07/28 03:14:59;;;;;;;1999.90;999.90;;;15.70;99.90;;;;;;5034553;28;20982;-65
2022/07/28 03:17:26;;;;;;;1999.90;999.90;;;15.60;99.90;;;;;;5034189;28;20792;-66
2022/07/28 03:19:51;;;;;;;1999.90;999.90;;;15.60;99.90;;;;;;5034764;28;20208;-64
2022/07/28 03:22:17;;;;;;;1999.90;999.90;;;15.50;99.90;;;;;;5034342;28;20524;-65
2022/07/28 03:24:49;;;;;;;1999.90;999.90;;;15.40;99.90;;;;;;5034413;28;20175;-65
2022/07/28 03:27:37;;;;;;;1999.90;999.90;;;15.40;99.90;;;;;;5033814;28;20208;-65
2022/07/28 03:30:13;;;;;;;1999.90;999.90;;;15.30;99.90;;;;;;5034266;28;20411;-64
2022/07/28 03:32:49;;;;;;;1999.90;999.90;;;15.20;99.90;;;;;;5034283;28;20413;-64
2022/07/28 03:35:16;;;;;;;1999.90;999.90;;;15.20;99.90;;;;;;5034393;28;20754;-64
2022/07/28 03:37:53;;;;;;;1999.90;999.90;;;15.20;99.90;;;;;;5033801;28;21142;-63
2022/07/28 03:40:20;;;;;;;1999.90;999.90;;;15.20;99.90;;;;;;5034067;28;20405;-65
2022/07/28 03:42:47;;;;;;;1999.90;999.90;;;15.20;99.90;;;;;;5034187;28;20534;-65
2022/07/28 03:45:14;;;;;;;1999.90;999.90;;;15.10;99.90;;;;;;5034035;28;20482;-64
2022/07/28 03:47:52;;;;;;;1999.90;999.90;;;15.20;99.90;;;;;;5033634;28;20425;-64
2022/07/28 03:50:24;;;;;;;1999.90;999.90;;;15.20;99.90;;;;;;5033868;28;20412;-64
2022/07/28 03:52:50;;;;;;;1999.90;999.90;;;15.20;99.90;;;;;;5033946;28;20844;-64
2022/07/28 03:55:16;;;;;;;1999.90;999.90;;;15.20;99.90;;;;;;5033942;28;20414;-64
2022/07/28 03:57:41;;;;;;;1999.90;999.90;;;15.10;99.90;;;;;;5033440;28;20813;-64
2022/07/28 04:00:08;;;;;;;1999.90;999.90;;;15.10;99.90;;;;;;5033860;28;20180;-64
2022/07/28 04:02:34;;;;;;;1999.90;999.90;;;15.00;99.90;;;;;;5033671;28;20207;-64
2022/07/28 04:05:00;;;;;;;1999.90;999.90;;;14.90;99.90;;;;;;5033950;28;20499;-64
2022/07/28 04:07:25;;;;;;;1999.90;999.90;;;14.90;99.90;;;;;;5033383;28;20183;-65
2022/07/28 04:09:51;;;;;;;1999.90;999.90;;;14.90;99.90;;;;;;5033603;28;20162;-65
2022/07/28 04:12:16;;;;;;;1999.90;999.90;;;14.90;99.90;;;;;;5033906;28;20173;-65
2022/07/28 04:14:42;;;;;;;1999.90;999.90;;;14.90;99.90;;;;;;5033646;28;20175;-65
2022/07/28 04:17:08;;;;;;;1999.90;999.90;;;14.90;99.90;;;;;;5033152;28;20218;-65
2022/07/28 04:19:33;;;;;;;1999.90;999.90;;;14.90;99.90;;;;;;5033317;28;20187;-65
2022/07/28 04:21:59;;;;;;;1999.90;999.90;;;14.90;99.90;;;;;;5033281;28;20172;-65
2022/07/28 04:24:24;;;;;;;1999.90;999.90;;;14.90;99.90;;;;;;5033286;28;20678;-65
2022/07/28 04:26:50;;;;;;;1999.90;999.90;;;14.90;99.90;;;;;;5032788;28;20753;-65
2022/07/28 04:29:16;;;;;;;1999.90;999.90;;;14.90;99.90;;;;;;5033226;28;20173;-64
2022/07/28 04:31:41;;;;;;;1999.90;999.90;;;15.00;99.90;;;;;;5033152;28;20164;-65
2022/07/28 04:34:08;;;;;;;1999.90;999.90;;;14.90;99.90;;;;;;5033107;28;20243;-64
2022/07/28 04:36:40;;;;;;;1999.90;999.90;;;14.80;99.90;;;;;;5032622;28;20255;-64
2022/07/28 04:39:06;;;;;;;1999.90;999.90;;;14.80;99.90;;;;;;5032959;28;20970;-66
2022/07/28 04:41:33;;;;;;;1999.90;999.90;;;14.80;99.90;;;;;;5032922;28;20406;-66
2022/07/28 04:43:59;;;;;;;1999.90;999.90;;;14.90;99.90;;;;;;5032882;28;20449;-65
2022/07/28 04:46:24;;;;;;;1999.90;999.90;;;14.90;99.90;;;;;;5032425;28;20515;-65
2022/07/28 04:48:50;;;;;;;1999.90;999.90;;;15.00;99.90;;;;;;5032830;28;20175;-65
2022/07/28 04:51:16;;;;;;;1999.90;999.90;;;15.00;99.90;;;;;;5032978;28;20179;-64
2022/07/28 04:53:42;;;;;;;1999.90;999.90;;;15.20;99.90;;;;;;5032699;28;20654;-65
2022/07/28 04:56:08;;;;;;;1999.90;999.90;;;15.20;99.90;;;;;;5032299;28;20440;-65
2022/07/28 04:58:34;;;;;;;1999.90;999.90;;;15.20;99.90;;;;;;5032708;28;20222;-64
2022/07/28 05:00:59;;;;;;;1999.90;999.90;;;15.20;99.90;;;;;;5032613;28;20178;-63
2022/07/28 05:03:25;;;;;;;1999.90;999.90;;;15.30;99.90;;;;;;5032470;28;20447;-63
2022/07/28 05:05:51;;;;;;;1999.90;999.90;;;15.30;99.90;;;;;;5031399;28;20282;-65
2022/07/28 05:08:16;;;;;;;1999.90;999.90;;;15.40;99.90;;;;;;5032307;28;20229;-65
2022/07/28 05:10:42;;;;;;;1999.90;999.90;;;15.50;99.90;;;;;;5032515;28;20244;-65
2022/07/28 05:13:08;;;;;;;1999.90;999.90;;;15.60;99.90;;;;;;5032555;28;20238;-66
2022/07/28 05:15:34;;;;;;;1999.90;999.90;;;15.70;99.90;;;;;;5032462;28;20168;-65
2022/07/28 05:17:59;;;;;;;1999.90;999.90;;;15.70;99.90;;;;;;5032025;28;20507;-65
2022/07/28 05:20:25;;;;;;;1999.90;999.90;;;15.80;99.90;;;;;;5031554;28;20255;-65
2022/07/28 05:22:52;;;;;;;1999.90;999.90;;;15.90;99.90;;;;;;5032313;28;20193;-66
2022/07/28 05:25:20;;;;;;;1999.90;999.90;;;15.90;99.90;;;;;;5032199;28;20243;-65
2022/07/28 05:27:46;;;;;;;1999.90;999.90;;;16.00;99.90;;;;;;5031730;28;20992;-65
2022/07/28 05:30:13;;;;;;;1999.90;999.90;;;16.00;99.90;;;;;;5032208;28;20919;-65
2022/07/28 05:32:39;;;;;;;1999.90;999.90;;;16.10;99.90;;;;;;5032148;28;20776;-66
2022/07/28 05:35:05;;;;;;;1999.90;999.90;;;16.10;99.90;;;;;;5032254;28;20415;-65
2022/07/28 05:37:36;;;;;;;1999.90;999.90;;;16.10;99.90;;;;;;5031652;28;20197;-65
2022/07/28 05:40:08;;;;;;;1999.90;999.90;;;16.10;99.90;;;;;;5032045;28;20413;-66
2022/07/28 05:42:36;;;;;;;1999.90;999.90;;;16.10;99.90;;;;;;5031977;28;20456;-65
2022/07/28 05:45:07;;;;;;;1999.90;999.90;;;16.00;99.90;;;;;;5031897;28;20499;-64
2022/07/28 05:47:41;;;;;;;1999.90;999.90;;;16.00;99.90;;;;;;5030488;28;20785;-64
2022/07/28 05:50:07;;;;;;;1999.90;999.90;;;16.00;99.90;;;;;;5031962;28;20407;-63
2022/07/28 05:52:33;;;;;;;1999.90;999.90;;;16.00;99.90;;;;;;5031917;28;20406;-64
2022/07/28 05:54:58;;;;;;;1999.90;999.90;;;16.00;99.90;;;;;;5031860;28;20877;-65
2022/07/28 05:57:24;;;;;;;1999.90;999.90;;;16.00;99.90;;;;;;5031499;28;20191;-64
2022/07/28 05:59:50;;;;;;;1999.90;999.90;;;16.10;99.90;;;;;;5032009;28;20176;-64
2022/07/28 06:02:16;;;;;;;1999.90;999.90;;;16.10;99.90;;;;;;5031717;28;20701;-64
2022/07/28 06:04:41;;;;;;;1999.90;999.90;;;16.20;99.90;;;;;;5031806;28;20411;-64
2022/07/28 06:07:07;;;;;;;1999.90;999.90;;;16.20;99.90;;;;;;5031412;28;20625;-64
2022/07/28 06:09:33;;;;;;;1999.90;999.90;;;16.30;99.90;;;;;;5031733;28;20173;-63
2022/07/28 06:11:58;;;;;;;1999.90;999.90;;;16.30;99.90;;;;;;5031672;28;20647;-63
2022/07/28 06:14:24;;;;;;;1999.90;999.90;;;16.20;99.90;;;;;;5031905;28;20179;-65
2022/07/28 06:16:49;;;;;;;1999.90;999.90;;;16.30;99.90;;;;;;5031353;28;20188;-64
2022/07/28 06:19:16;;;;;;;1999.90;999.90;;;16.30;99.90;;;;;;5031710;28;20178;-64
2022/07/28 06:21:42;;;;;;;1999.90;999.90;;;16.30;99.90;;;;;;5031645;28;20167;-64
2022/07/28 06:24:08;;;;;;;1999.90;999.90;;;16.40;99.90;;;;;;5031554;28;20787;-65
2022/07/28 06:26:36;;;;;;;1999.90;999.90;;;16.50;99.90;;;;;;5031116;28;20203;-65
2022/07/28 06:29:02;;;;;;;1999.90;999.90;;;16.60;99.90;;;;;;5031542;28;20205;-64
2022/07/28 06:31:28;;;;;;;1999.90;999.90;;;16.60;99.90;;;;;;5032030;28;20917;-64
2022/07/28 06:33:54;;;;;;;1999.90;999.90;;;16.60;99.90;;;;;;5035373;28;20457;-65
2022/07/28 06:36:19;;;;;;;1999.90;999.90;;;16.70;99.90;;;;;;5034971;28;20872;-65
2022/07/28 06:38:45;;;;;;;1999.90;999.90;;;16.80;99.90;;;;;;5035328;28;20206;-65
2022/07/28 06:41:11;;;;;;;1999.90;999.90;;;16.90;99.90;;;;;;5035229;28;20169;-64
2022/07/28 06:43:37;;;;;;;1999.90;999.90;;;17.00;99.90;;;;;;5035265;28;20210;-64
2022/07/28 06:46:02;;;;;;;1999.90;999.90;;;17.10;99.90;;;;;;5034838;28;20935;-65
2022/07/28 06:48:28;;;;;;;1999.90;999.90;;;17.30;99.90;;;;;;5035133;28;20515;-65
2022/07/28 06:50:55;;;;;;;1999.90;999.90;;;17.40;99.90;;;;;;5035010;28;20170;-65
2022/07/28 06:53:22;;;;;;;1999.90;999.90;;;17.50;99.90;;;;;;5035014;28;20276;-65
2022/07/28 06:55:48;;;;;;;1999.90;999.90;;;17.70;99.90;;;;;;5034824;28;20410;-65
2022/07/28 06:58:14;;;;;;;1999.90;999.90;;;17.80;99.90;;;;;;5034648;28;20413;-65
2022/07/28 07:00:39;;;;;;;1999.90;999.90;;;17.90;99.90;;;;;;5034869;28;20912;-65
2022/07/28 07:03:05;;;;;;;1999.90;999.90;;;17.90;99.90;;;;;;5034755;28;20694;-64
2022/07/28 07:05:31;;;;;;;1999.90;999.90;;;17.90;99.90;;;;;;5034801;28;20168;-65
2022/07/28 07:07:57;;;;;;;1999.90;999.90;;;18.00;99.90;;;;;;5034374;28;20213;-66
2022/07/28 07:10:22;;;;;;;1999.90;999.90;;;18.00;99.90;;;;;;5034669;28;20232;-65
2022/07/28 07:12:48;;;;;;;1999.90;999.90;;;18.20;99.90;;;;;;5034646;28;20469;-64
2022/07/28 07:15:14;;;;;;;1999.90;999.90;;;18.30;99.90;;;;;;5034729;28;20214;-63
2022/07/28 07:17:40;;;;;;;1999.90;999.90;;;18.40;99.90;;;;;;5034144;28;20255;-64
2022/07/28 07:20:07;;;;;;;1999.90;999.90;;;18.50;99.90;;;;;;5034490;28;20260;-64
2022/07/28 07:22:33;;;;;;;1999.90;999.90;;;18.50;99.90;;;;;;5034486;28;20461;-64
2022/07/28 07:25:13;;;;;;;1999.90;999.90;;;18.70;99.90;;;;;;5034443;28;20949;-64
2022/07/28 07:27:39;;;;;;;1999.90;999.90;;;18.70;99.90;;;;;;5033954;28;20447;-64
2022/07/28 07:30:07;;;;;;;1999.90;999.90;;;18.90;99.90;;;;;;5034457;28;20436;-64
2022/07/28 07:32:33;;;;;;;1999.90;999.90;;;18.90;99.90;;;;;;5034290;28;20407;-63
2022/07/28 07:34:58;;;;;;;1999.90;999.90;;;19.00;99.90;;;;;;5034200;28;20544;-64
2022/07/28 07:37:24;;;;;;;1999.90;999.90;;;19.10;99.90;;;;;;5033794;28;20967;-64
2022/07/28 07:39:50;;;;;;;1999.90;999.90;;;19.10;99.90;;;;;;5034127;28;20178;-64
2022/07/28 07:42:16;;;;;;;1999.90;999.90;;;19.30;99.90;;;;;;5034016;28;20627;-65
2022/07/28 07:44:42;;;;;;;1999.90;999.90;;;19.40;99.90;;;;;;5033252;28;20456;-64
2022/07/28 07:47:08;;;;;;;1999.90;999.90;;;19.40;99.90;;;;;;5033625;28;20434;-64
2022/07/28 07:49:37;;;;;;;1999.90;999.90;;;19.50;99.90;;;;;;5033789;28;20404;-64
2022/07/28 07:52:02;;;;;;;1999.90;999.90;;;19.60;99.90;;;;;;5033757;28;20589;-64
2022/07/28 07:54:28;;;;;;;1999.90;999.90;;;19.60;99.90;;;;;;5033865;28;20482;-64
2022/07/28 07:56:54;;;;;;;1999.90;999.90;;;19.60;99.90;;;;;;5033480;28;20203;-65
2022/07/28 07:59:19;;;;;;;1999.90;999.90;;;19.70;99.90;;;;;;5033684;28;20258;-65
2022/07/28 08:01:45;;;;;;;1999.90;999.90;;;19.80;99.90;;;;;;5033655;28;20224;-65
2022/07/28 08:04:11;;;;;;;1999.90;999.90;;;19.80;99.90;;;;;;5033522;28;20214;-64
2022/07/28 08:06:37;;;;;;;1999.90;999.90;;;20.00;99.90;;;;;;5033162;28;21020;-65
2022/07/28 08:09:02;;;;;;;1999.90;999.90;;;20.00;99.90;;;;;;5033575;28;20491;-65
2022/07/28 08:11:28;;;;;;;1999.90;999.90;;;20.10;99.90;;;;;;5033643;28;20165;-65
2022/07/28 08:13:54;;;;;;;1999.90;999.90;;;20.10;99.90;;;;;;5033966;28;20403;-65
2022/07/28 08:16:19;;;;;;;1999.90;999.90;;;20.10;99.90;;;;;;5033135;28;20223;-65
2022/07/28 08:18:45;;;;;;;1999.90;999.90;;;20.20;99.90;;;;;;5033334;28;20177;-65
2022/07/28 08:21:11;;;;;;;1999.90;999.90;;;20.30;99.90;;;;;;5033740;28;20574;-65
2022/07/28 08:23:37;;;;;;;1999.90;999.90;;;20.40;99.90;;;;;;5033494;28;20212;-65
2022/07/28 08:26:04;;;;;;;1999.90;999.90;;;20.50;99.90;;;;;;5031250;28;20406;-68
2022/07/28 08:28:30;;;;;;;1999.90;999.90;;;20.60;99.90;;;;;;5031732;28;20173;-66
2022/07/28 08:30:56;;;;;;;1999.90;999.90;;;20.70;99.90;;;;;;5032632;28;20423;-65
2022/07/28 08:33:21;;;;;;;1999.90;999.90;;;20.60;99.90;;;;;;5032225;28;20206;-65
2022/07/28 08:35:48;;;;;;;1999.90;999.90;;;20.70;99.90;;;;;;5029062;28;20177;-66
2022/07/28 08:38:14;;;;;;;1999.90;999.90;;;20.80;99.90;;;;;;5032258;28;20196;-66
2022/07/28 08:40:44;;;;;;;1999.90;999.90;;;20.90;99.90;;;;;;5032305;28;20448;-67
2022/07/28 08:43:29;;;;;;;1999.90;999.90;;;20.90;99.90;;;;;;5031713;28;20247;-66
2022/07/28 08:45:55;;;;;;;1999.90;999.90;;;21.10;99.90;;;;;;5032145;28;20743;-66
2022/07/28 08:48:22;;;;;;;1999.90;999.90;;;21.20;99.90;;;;;;5031980;28;20793;-67
2022/07/28 08:50:49;;;;;;;1999.90;999.90;;;21.30;99.90;;;;;;5031161;28;20410;-67
2022/07/28 08:53:15;;;;;;;1999.90;999.90;;;21.30;99.90;;;;;;5032184;28;20751;-67
2022/07/28 08:55:42;;;;;;;1999.90;999.90;;;21.40;99.90;;;;;;5031990;28;20424;-68
2022/07/28 08:58:10;;;;;;;1999.90;999.90;;;21.50;99.90;;;;;;5030976;28;20456;-69
2022/07/28 09:00:36;;;;;;;1999.90;999.90;;;21.70;99.90;;;;;;5031807;28;20374;-69
2022/07/28 09:03:03;;;;;;;1999.90;999.90;;;21.70;99.90;;;;;;5031744;28;20434;-69
2022/07/28 09:05:29;;;;;;;1999.90;999.90;;;21.60;99.90;;;;;;5031327;28;20409;-69
2022/07/28 09:07:56;;;;;;;1999.90;999.90;;;21.80;99.90;;;;;;5031060;28;20411;-70
2022/07/28 09:10:22;;;;;;;1999.90;999.90;;;21.90;99.90;;;;;;5031781;28;20678;-65
2022/07/28 09:12:48;;;;;;;1999.90;999.90;;;22.00;99.90;;;;;;5031316;28;21058;-65
2022/07/28 09:15:14;;;;;;;1999.90;999.90;;;22.20;99.90;;;;;;5030372;28;20452;-65
2022/07/28 09:17:40;;;;;;;1999.90;999.90;;;22.40;99.90;;;;;;5031054;28;20455;-65
2022/07/28 09:20:07;;;;;;;1999.90;999.90;;;22.50;99.90;;;;;;5031232;28;20237;-65
2022/07/28 09:22:34;;;;;;;1999.90;999.90;;;22.50;99.90;;;;;;5031594;28;20496;-64
2022/07/28 09:25:02;;;;;;;1999.90;999.90;;;22.60;99.90;;;;;;5031534;28;20413;-65
2022/07/28 09:27:43;;;;;;;1999.90;999.90;;;22.70;99.90;;;;;;5030664;28;20427;-65
2022/07/28 09:30:09;;;;;;;1999.90;999.90;;;22.80;99.90;;;;;;5031767;28;20450;-65
2022/07/28 09:32:35;;;;;;;1999.90;999.90;;;23.00;99.90;;;;;;5031471;28;20990;-64
2022/07/28 09:35:01;;;;;;;1999.90;999.90;;;23.10;99.90;;;;;;5030929;28;20505;-65
2022/07/28 09:37:26;;;;;;;1999.90;999.90;;;23.10;99.90;;;;;;5030863;28;20650;-65
2022/07/28 09:39:57;;;;;;;1999.90;999.90;;;23.20;99.00;;;;;;5031070;28;20235;-65
2022/07/28 09:42:23;;;;;;;1999.90;999.90;;;23.30;98.60;;;;;;5030929;28;20562;-65
2022/07/28 09:45:26;;;;;;;1999.90;999.90;;;23.40;98.30;;;;;;5031469;28;20442;-65
2022/07/28 09:48:09;;;;;;;1999.90;999.90;;;23.50;96.20;;;;;;4989230;28;20425;-64
2022/07/28 09:50:35;;;;;;;1999.90;999.90;;;23.70;94.50;;;;;;5030821;28;20468;-65
2022/07/28 09:53:28;;;;;;;1999.90;999.90;;;23.90;93.50;;;;;;5031197;28;20498;-65
2022/07/28 09:56:01;;;;;;;1999.90;999.90;;;24.10;92.80;;;;;;5031133;28;20788;-65
2022/07/28 09:58:30;;;;;;;1999.90;999.90;;;24.20;90.00;;;;;;5030808;28;20401;-65
2022/07/28 10:01:09;;;;;;;1999.90;999.90;;;24.00;84.50;;;;;;5031040;28;20429;-65
2022/07/28 10:03:37;;;;;;;1999.90;999.90;;;24.10;88.40;;;;;;5030989;28;20823;-65
2022/07/28 10:06:06;;;;;;;1999.90;999.90;;;24.30;86.20;;;;;;5030984;28;20421;-65
2022/07/28 10:08:41;;;;;;;1999.90;999.90;;;24.50;78.90;;;;;;5035007;28;20368;-65
2022/07/28 10:11:08;;;;;;;1999.90;999.90;;;24.60;78.50;;;;;;5034732;28;20415;-65
2022/07/28 10:13:34;;;;;;;1999.90;999.90;;;24.40;74.80;;;;;;5035021;28;20468;-65
2022/07/28 10:16:10;;;;;;;1999.90;999.90;;;24.40;73.40;;;;;;5034597;28;20411;-65
2022/07/28 10:18:37;;;;;;;1999.90;999.90;;;24.50;71.90;;;;;;5034697;28;20168;-65
2022/07/28 10:21:07;;;;;;;1999.90;999.90;;;24.60;73.70;;;;;;5035033;28;20524;-65
2022/07/28 10:23:38;;;;;;;1999.90;999.90;;;24.80;69.50;;;;;;5034764;28;21002;-65
2022/07/28 10:26:07;;;;;;;1999.90;999.90;;;24.90;66.30;;;;;;5034004;28;20381;-65
2022/07/28 10:28:46;;;;;;;1999.90;999.90;;;25.10;62.10;;;;;;5034986;28;20822;-65
2022/07/28 10:31:17;;;;;;;1999.90;999.90;;;25.20;59.20;;;;;;5034695;28;20522;-65
2022/07/28 10:33:49;;;;;;;1999.90;999.90;;;25.40;61.70;;;;;;5034383;28;20438;-65
2022/07/28 10:36:21;;;;;;;1999.90;999.90;;;25.50;60.40;;;;;;5034272;28;20462;-64
2022/07/28 10:38:48;;;;;;;1999.90;999.90;;;25.80;57.40;;;;;;5034313;28;20428;-65
2022/07/28 10:41:15;;;;;;;1999.90;999.90;;;26.00;54.50;;;;;;5034177;28;20943;-65
2022/07/28 10:43:43;;;;;;;1999.90;999.90;;;26.10;53.60;;;;;;5034428;28;20482;-64
2022/07/28 10:46:09;;;;;;;1999.90;999.90;;;26.30;52.60;;;;;;5033986;28;20407;-64
2022/07/28 10:48:39;;;;;;;1999.90;999.90;;;26.40;50.60;;;;;;5033950;28;20430;-64
2022/07/28 10:51:04;;;;;;;1999.90;999.90;;;26.60;51.80;;;;;;5034283;28;20437;-65
2022/07/28 10:53:45;;;;;;;1999.90;999.90;;;26.70;47.90;;;;;;5034541;28;20427;-65
2022/07/28 10:56:35;;;;;;;1999.90;999.90;;;26.80;47.60;;;;;;5032300;28;20200;-64
2022/07/28 10:59:45;;;;;;;1999.90;999.90;;;26.80;46.00;;;;;;5033835;28;20826;-65
2022/07/28 11:02:43;;;;;;;1999.90;999.90;;;26.80;45.10;;;;;;5034322;28;20507;-65
2022/07/28 11:05:27;;;;;;;1999.90;999.90;;;27.00;45.60;;;;;;5034034;28;20410;-64
2022/07/28 11:07:53;;;;;;;1999.90;999.90;;;27.10;44.70;;;;;;5033607;28;20420;-64
2022/07/28 11:10:21;;;;;;;1999.90;999.90;;;27.30;43.10;;;;;;5033475;28;20391;-64
2022/07/28 11:12:54;;;;;;;1999.90;999.90;;;27.30;44.10;;;;;;5034194;28;20374;-66
2022/07/28 11:15:27;;;;;;;1999.90;999.90;;;27.40;41.10;;;;;;5034151;28;20809;-65
2022/07/28 11:18:07;;;;;;;1999.90;999.90;;;27.40;41.50;;;;;;5032615;28;20422;-65
2022/07/28 11:20:51;;;;;;;1999.90;999.90;;;27.50;39.70;;;;;;5034201;28;20406;-65
2022/07/28 11:23:44;;;;;;;1999.90;999.90;;;27.60;36.60;;;;;;5034005;28;20449;-65
2022/07/28 11:26:19;;;;;;;1999.90;999.90;;;27.20;37.80;;;;;;5033139;28;20411;-65
2022/07/28 11:29:11;;;;;;;1999.90;999.90;;;27.50;41.20;;;;;;5033928;28;20403;-65
2022/07/28 11:31:45;;;;;;;1999.90;999.90;;;27.40;38.80;;;;;;5033796;28;20423;-65
2022/07/28 11:34:11;;;;;;;1999.90;999.90;;;27.70;37.90;;;;;;5033486;28;20398;-65
2022/07/28 11:37:00;;;;;;;1999.90;999.90;;;28.00;35.70;;;;;;5033464;28;20423;-64
2022/07/28 11:39:33;;;;;;;1999.90;999.90;;;28.10;34.80;;;;;;5033889;28;20435;-65
2022/07/28 11:42:19;;;;;;;1999.90;999.90;;;28.30;32.90;;;;;;5033425;28;20395;-65
2022/07/28 11:44:45;;;;;;;1999.90;999.90;;;28.40;32.80;;;;;;5033605;28;20473;-65
2022/07/28 11:47:21;;;;;;;1999.90;999.90;;;28.60;33.30;;;;;;5032912;28;20427;-65
2022/07/28 11:50:12;;;;;;;1999.90;999.90;;;28.70;31.90;;;;;;5033653;28;20410;-64
2022/07/28 11:52:39;;;;;;;1999.90;999.90;;;28.90;30.70;;;;;;5033719;28;20406;-64
2022/07/28 11:55:07;;;;;;;1999.90;999.90;;;29.10;30.90;;;;;;5033154;28;20401;-65
2022/07/28 11:57:40;;;;;;;1999.90;999.90;;;29.40;29.70;;;;;;5033174;28;20415;-65
2022/07/28 12:00:07;;;;;;;1999.90;999.90;;;29.80;30.30;;;;;;5033295;28;20495;-65
2022/07/28 12:02:34;;;;;;;1999.90;999.90;;;30.00;28.20;;;;;;5032890;28;20451;-65
2022/07/28 12:05:09;;;;;;;1999.90;999.90;;;30.10;28.50;;;;;;5033532;28;20422;-65
2022/07/28 12:07:49;;;;;;;1999.90;999.90;;;30.60;27.80;;;;;;5032927;28;20485;-65
2022/07/28 12:10:32;;;;;;;1999.90;999.90;;;31.20;27.30;;;;;;5032771;28;20970;-65